createdAt,value
2023-03-03T00:00:26.139Z,101050.39
2023-03-03T00:03:58.572Z,101044.88
2023-03-03T00:07:25.986Z,101049.99
2023-03-03T00:10:55.757Z,101034.27
2023-03-03T00:14:28.433Z,101025.91
2023-03-03T00:17:55.956Z,101024.70
2023-03-03T00:21:35.087Z,101019.20
2023-03-03T00:25:23.952Z,101014.40
2023-03-03T00:28:52.196Z,101017.47
2023-03-03T00:32:27.710Z,101008.77
2023-03-03T00:35:54.694Z,101010.81
2023-03-03T00:39:32.671Z,101002.63
2023-03-03T00:43:01.979Z,101008.27
2023-03-03T00:46:29.101Z,101003.48
2023-03-03T00:49:56.819Z,101002.95
2023-03-03T00:53:25.346Z,100989.29
2023-03-03T00:56:53.917Z,100984.85
2023-03-03T01:00:22.001Z,100992.14
2023-03-03T01:03:48.899Z,100993.47
2023-03-03T01:07:16.312Z,101002.16
2023-03-03T01:10:46.696Z,101011.36
2023-03-03T01:14:13.458Z,101007.61
2023-03-03T01:17:41.142Z,101003.34
2023-03-03T01:21:09.290Z,101001.79
2023-03-03T01:24:36.099Z,101005.36
2023-03-03T01:28:05.027Z,101000.58
2023-03-03T01:31:32.254Z,101002.63
2023-03-03T01:34:59.250Z,100991.04
2023-03-03T01:38:25.952Z,100987.45
2023-03-03T01:41:52.636Z,100990.73
2023-03-03T01:45:23.523Z,100987.17
2023-03-03T01:48:51.337Z,100973.55
2023-03-03T01:52:27.617Z,100961.96
2023-03-03T01:55:56.184Z,100964.02
2023-03-03T01:59:26.318Z,100962.99
2023-03-03T02:02:54.279Z,100960.13
2023-03-03T02:06:24.408Z,100954.50
2023-03-03T02:10:00.332Z,100956.06
2023-03-03T02:13:27.374Z,100961.02
2023-03-03T02:16:55.027Z,100962.20
2023-03-03T02:20:32.959Z,100963.05
2023-03-03T02:24:08.061Z,100958.61
2023-03-03T02:27:36.602Z,100956.54
2023-03-03T02:31:04.833Z,100950.19
2023-03-03T02:34:31.328Z,100940.12
2023-03-03T02:38:01.423Z,100923.39
2023-03-03T02:41:36.204Z,100920.80
2023-03-03T02:45:03.687Z,100922.64
2023-03-03T02:48:30.258Z,100930.47
2023-03-03T02:51:57.093Z,100931.45
2023-03-03T02:55:24.362Z,100928.55
2023-03-03T02:58:51.922Z,100925.82
2023-03-03T03:02:20.370Z,100918.48
2023-03-03T03:05:47.924Z,100916.98
2023-03-03T03:09:16.215Z,100916.66
2023-03-03T03:12:43.550Z,100912.41
2023-03-03T03:16:11.860Z,100909.88
2023-03-03T03:19:39.723Z,100918.41
2023-03-03T03:23:07.076Z,100915.89
2023-03-03T03:26:33.898Z,100904.12
2023-03-03T03:30:02.013Z,100897.85
2023-03-03T03:33:30.100Z,100891.36
2023-03-03T03:37:00.141Z,100889.98
2023-03-03T03:40:28.108Z,100899.85
2023-03-03T03:43:55.409Z,100887.74
2023-03-03T03:47:23.457Z,100879.54
2023-03-03T03:50:50.900Z,100888.91
2023-03-03T03:54:18.314Z,100890.60
2023-03-03T03:57:46.666Z,100889.22
2023-03-03T04:01:13.363Z,100882.91
2023-03-03T04:04:44.861Z,100888.20
2023-03-03T04:08:13.046Z,100894.66
2023-03-03T04:11:39.909Z,100902.34
2023-03-03T04:15:10.095Z,100900.98
2023-03-03T04:18:37.861Z,100904.73
2023-03-03T04:22:07.179Z,100905.95
2023-03-03T04:25:34.580Z,100915.52
2023-03-03T04:29:02.829Z,100914.70
2023-03-03T04:32:30.691Z,100909.77
2023-03-03T04:35:57.629Z,100906.39
2023-03-03T04:39:25.481Z,100923.14
2023-03-03T04:42:53.260Z,100913.27
2023-03-03T04:46:20.277Z,100908.16
2023-03-03T04:49:48.364Z,100902.70
2023-03-03T04:53:16.022Z,100895.19
2023-03-03T04:56:43.006Z,100899.63
2023-03-03T05:00:13.359Z,100906.28
2023-03-03T05:03:40.850Z,100904.74
2023-03-03T05:07:08.451Z,100902.86
2023-03-03T05:10:36.391Z,100908.30
2023-03-03T05:14:03.280Z,100916.98
2023-03-03T05:17:30.396Z,100914.05
2023-03-03T05:20:56.749Z,100914.71
2023-03-03T05:24:24.146Z,100913.50
2023-03-03T05:27:50.829Z,100917.93
2023-03-03T05:31:17.456Z,100914.70
2023-03-03T05:34:45.552Z,100900.71
2023-03-03T05:38:15.487Z,100898.53
2023-03-03T05:41:41.884Z,100890.86
2023-03-03T05:45:10.025Z,100889.85
2023-03-03T05:48:36.942Z,100890.06
2023-03-03T05:52:08.155Z,100884.09
2023-03-03T05:55:34.816Z,100884.11
2023-03-03T05:59:02.681Z,100889.59
2023-03-03T06:02:29.784Z,100889.08
2023-03-03T06:05:57.152Z,100898.96
2023-03-03T06:09:26.536Z,100894.36
2023-03-03T06:12:53.857Z,100897.59
2023-03-03T06:16:21.062Z,100897.24
2023-03-03T06:19:48.592Z,100896.05
2023-03-03T06:23:15.999Z,100899.77
2023-03-03T06:26:42.832Z,100892.27
2023-03-03T06:30:13.125Z,100898.24
2023-03-03T06:33:43.674Z,100892.10
2023-03-03T06:37:10.420Z,100896.54
2023-03-03T06:40:37.086Z,100900.11
2023-03-03T06:44:04.279Z,100908.30
2023-03-03T06:47:31.883Z,100919.23
2023-03-03T06:50:58.850Z,100930.48
2023-03-03T06:54:31.138Z,100932.70
2023-03-03T06:57:58.286Z,100939.38
2023-03-03T07:01:24.881Z,100939.72
2023-03-03T07:04:51.825Z,100933.41
2023-03-03T07:08:20.869Z,100941.28
2023-03-03T07:11:50.289Z,100946.76
2023-03-03T07:15:21.907Z,100945.23
2023-03-03T07:18:54.189Z,100951.05
2023-03-03T07:22:23.470Z,100951.23
2023-03-03T07:25:51.441Z,100950.90
2023-03-03T07:29:27.721Z,100958.58
2023-03-03T07:32:59.010Z,100967.46
2023-03-03T07:36:31.479Z,100972.23
2023-03-03T07:39:58.839Z,100975.30
2023-03-03T07:43:35.485Z,100974.29
2023-03-03T07:47:13.745Z,100972.42
2023-03-03T07:50:43.817Z,100978.41
2023-03-03T07:54:28.776Z,100978.91
2023-03-03T07:58:17.726Z,100979.94
2023-03-03T08:01:55.446Z,100982.17
2023-03-03T08:05:39.219Z,100992.76
2023-03-03T08:09:30.234Z,100991.06
2023-03-03T08:13:09.774Z,100994.64
2023-03-03T08:16:42.021Z,100992.11
2023-03-03T08:20:47.729Z,100993.65
2023-03-03T08:24:14.722Z,100989.55
2023-03-03T08:27:42.169Z,100989.73
2023-03-03T08:31:20.325Z,100987.84
2023-03-03T08:34:52.321Z,100986.99
2023-03-03T08:38:21.915Z,100973.50
2023-03-03T08:41:50.563Z,100971.45
2023-03-03T08:45:17.220Z,100977.92
2023-03-03T08:48:45.599Z,100979.11
2023-03-03T08:52:12.854Z,100979.11
2023-03-03T08:55:39.828Z,100976.37
2023-03-03T08:59:06.773Z,100976.18
2023-03-03T09:02:33.817Z,100980.63
2023-03-03T09:06:01.099Z,100980.10
2023-03-03T09:09:28.598Z,100973.59
2023-03-03T09:12:58.478Z,100971.34
2023-03-03T09:16:25.244Z,100969.80
2023-03-03T09:19:54.330Z,100970.80
2023-03-03T09:23:35.046Z,100965.48
2023-03-03T09:27:03.146Z,100960.13
2023-03-03T09:30:47.640Z,100942.46
2023-03-03T09:34:22.123Z,100940.18
2023-03-03T09:37:53.062Z,100942.00
2023-03-03T09:45:43.357Z,100927.66
2023-03-03T09:49:24.735Z,100920.96
2023-03-03T09:53:03.482Z,100924.05
2023-03-03T09:56:36.116Z,100925.09
2023-03-03T10:00:21.097Z,100929.17
2023-03-03T10:04:07.987Z,100927.12
2023-03-03T10:07:45.281Z,100927.94
2023-03-03T10:11:24.584Z,100922.98
2023-03-03T10:15:13.505Z,100922.29
2023-03-03T10:18:49.930Z,100922.11
2023-03-03T10:22:27.573Z,100918.38
2023-03-03T10:26:08.696Z,100917.33
2023-03-03T10:29:41.571Z,100914.59
2023-03-03T10:33:15.805Z,100908.06
2023-03-03T10:37:08.962Z,100914.70
2023-03-03T10:40:42.768Z,100917.23
2023-03-03T10:44:33.445Z,100921.28
2023-03-03T10:48:17.326Z,100925.72
2023-03-03T10:51:57.798Z,100926.18
2023-03-03T10:55:45.114Z,100923.73
2023-03-03T10:59:28.774Z,100924.61
2023-03-03T11:03:22.139Z,100924.45
2023-03-03T11:06:56.596Z,100913.84
2023-03-03T11:10:39.900Z,100912.89
2023-03-03T11:14:14.920Z,100907.29
2023-03-03T11:17:56.342Z,100904.73
2023-03-03T11:21:35.018Z,100896.52
2023-03-03T11:25:10.922Z,100889.80
2023-03-03T11:28:51.954Z,100886.70
2023-03-03T11:32:28.755Z,100890.80
2023-03-03T11:36:08.859Z,100884.11
2023-03-03T11:39:37.324Z,100878.24
2023-03-03T11:43:30.079Z,100877.35
2023-03-03T11:47:08.027Z,100878.77
2023-03-03T11:50:45.047Z,100877.30
2023-03-03T11:54:20.381Z,100869.54
2023-03-03T11:57:52.732Z,100873.58
2023-03-03T12:01:24.616Z,100874.61
2023-03-03T12:04:55.664Z,100875.83
2023-03-03T12:08:36.527Z,100879.59
2023-03-03T12:12:08.321Z,100874.63
2023-03-03T12:15:43.241Z,100873.44
2023-03-03T12:19:41.923Z,100870.89
2023-03-03T12:23:21.426Z,100867.15
2023-03-03T12:26:57.070Z,100862.01
2023-03-03T12:30:39.927Z,100860.79
2023-03-03T12:34:13.481Z,100854.28
2023-03-03T12:37:54.966Z,100848.44
2023-03-03T12:41:28.754Z,100850.10
2023-03-03T12:45:11.014Z,100852.42
2023-03-03T12:48:42.997Z,100852.19
2023-03-03T12:52:26.229Z,100851.06
2023-03-03T12:55:56.998Z,100844.55
2023-03-03T12:59:32.340Z,100842.06
2023-03-03T13:03:12.198Z,100839.21
2023-03-03T13:06:44.699Z,100832.80
2023-03-03T13:10:40.803Z,100832.52
2023-03-03T13:14:19.224Z,100824.18
2023-03-03T13:17:56.794Z,100827.00
2023-03-03T13:21:29.525Z,100819.04
2023-03-03T13:25:04.732Z,100816.94
2023-03-03T13:28:39.550Z,100814.89
2023-03-03T13:32:14.110Z,100806.65
2023-03-03T13:35:47.079Z,100806.83
2023-03-03T13:39:23.297Z,100801.34
2023-03-03T13:42:54.384Z,100806.36
2023-03-03T13:46:36.932Z,100802.53
2023-03-03T13:50:24.202Z,100805.61
2023-03-03T13:54:00.250Z,100802.80
2023-03-03T13:57:52.328Z,100804.63
2023-03-03T14:01:26.837Z,100801.51
2023-03-03T14:05:02.220Z,100802.54
2023-03-03T14:08:46.767Z,100797.42
2023-03-03T14:12:23.416Z,100793.53
2023-03-03T14:15:57.584Z,100793.40
2023-03-03T14:19:27.895Z,100784.48
2023-03-03T14:22:58.585Z,100781.06
2023-03-03T14:26:25.422Z,100775.34
2023-03-03T14:29:52.507Z,100766.77
2023-03-03T14:33:29.975Z,100760.29
2023-03-03T14:37:21.109Z,100757.13
2023-03-03T14:40:50.044Z,100756.16
2023-03-03T14:44:29.828Z,100758.73
2023-03-03T14:47:58.132Z,100751.92
2023-03-03T14:51:30.983Z,100748.34
2023-03-03T14:55:00.547Z,100745.21
2023-03-03T14:58:36.921Z,100744.70
2023-03-03T15:02:36.340Z,100727.35
2023-03-03T15:06:11.533Z,100730.00
2023-03-03T15:09:43.641Z,100721.57
2023-03-03T15:13:34.474Z,100723.59
2023-03-03T15:17:21.050Z,100723.73
2023-03-03T15:20:49.728Z,100727.90
2023-03-03T15:24:26.748Z,100720.44
2023-03-03T15:28:06.422Z,100720.81
2023-03-03T15:31:43.642Z,100719.86
2023-03-03T15:35:32.427Z,100719.53
2023-03-03T15:39:14.693Z,100718.06
2023-03-03T15:42:49.586Z,100713.89
2023-03-03T15:46:30.637Z,100705.23
2023-03-03T15:50:21.055Z,100705.68
2023-03-03T15:54:16.555Z,100704.92
2023-03-03T15:57:54.513Z,100693.85
2023-03-03T16:01:28.687Z,100690.04
2023-03-03T16:05:04.876Z,100684.01
2023-03-03T16:08:42.191Z,100691.65
2023-03-03T16:12:18.627Z,100687.80
2023-03-03T16:15:58.929Z,100679.87
2023-03-03T16:19:39.197Z,100680.95
2023-03-03T16:23:31.136Z,100682.92
2023-03-03T16:27:07.754Z,100684.48
2023-03-03T16:30:41.713Z,100680.95
2023-03-03T16:34:21.118Z,100678.57
2023-03-03T16:38:01.176Z,100669.31
2023-03-03T16:41:39.851Z,100676.51
2023-03-03T16:45:23.684Z,100677.56
2023-03-03T16:48:56.781Z,100679.34
2023-03-03T16:52:35.238Z,100681.80
2023-03-03T16:56:11.518Z,100679.52
2023-03-03T17:00:01.757Z,100680.45
2023-03-03T17:03:49.477Z,100683.11
2023-03-03T17:07:40.183Z,100683.08
2023-03-03T17:11:21.265Z,100681.65
2023-03-03T17:15:07.620Z,100682.23
2023-03-03T17:18:45.735Z,100677.20
2023-03-03T17:22:24.578Z,100675.59
2023-03-03T17:26:00.898Z,100669.83
2023-03-03T17:29:47.339Z,100669.71
2023-03-03T17:33:41.377Z,100665.13
2023-03-03T17:37:19.756Z,100671.19
2023-03-03T17:41:00.815Z,100673.80
2023-03-03T17:44:36.976Z,100667.29
2023-03-03T17:48:25.887Z,100657.00
2023-03-03T17:52:27.338Z,100654.23
2023-03-03T17:56:13.643Z,100654.21
2023-03-03T17:59:59.253Z,100643.12
2023-03-03T18:03:54.181Z,100643.70
2023-03-03T18:07:36.666Z,100641.71
2023-03-03T18:11:24.903Z,100644.00
2023-03-03T18:15:20.820Z,100646.23
2023-03-03T18:19:23.381Z,100634.98
2023-03-03T18:22:54.165Z,100626.98
2023-03-03T18:26:37.781Z,100630.96
2023-03-03T18:30:29.621Z,100618.17
2023-03-03T18:34:09.431Z,100607.39
2023-03-03T18:37:49.371Z,100601.94
2023-03-03T18:41:27.002Z,100597.66
2023-03-03T18:44:55.869Z,100598.27
2023-03-03T18:48:45.624Z,100602.02
2023-03-03T18:52:24.650Z,100601.29
2023-03-03T18:55:54.168Z,100592.88
2023-03-03T18:59:42.566Z,100588.00
2023-03-03T19:03:28.728Z,100575.82
2023-03-03T19:07:30.941Z,100571.36
2023-03-03T19:10:59.801Z,100569.14
2023-03-03T19:14:40.814Z,100569.48
2023-03-03T19:18:16.207Z,100563.50
2023-03-03T19:21:52.708Z,100565.39
2023-03-03T19:25:27.469Z,100560.42
2023-03-03T19:29:06.425Z,100560.25
2023-03-03T19:32:50.149Z,100557.17
2023-03-03T19:36:42.302Z,100546.23
2023-03-03T19:40:24.725Z,100534.58
2023-03-03T19:44:02.857Z,100523.63
2023-03-03T19:47:38.416Z,100520.16
2023-03-03T19:51:10.855Z,100515.31
2023-03-03T19:55:05.706Z,100507.06
2023-03-03T19:58:46.427Z,100500.04
2023-03-03T20:02:38.238Z,100491.58
2023-03-03T20:06:24.087Z,100484.17
2023-03-03T20:10:03.407Z,100480.38
2023-03-03T20:13:53.186Z,100473.82
2023-03-03T20:17:52.693Z,100476.55
2023-03-03T20:21:40.285Z,100464.89
2023-03-03T20:25:21.262Z,100462.89
2023-03-03T20:29:14.880Z,100467.05
2023-03-03T20:33:10.928Z,100464.65
2023-03-03T20:36:47.728Z,100462.27
2023-03-03T20:40:31.384Z,100459.97
2023-03-03T20:44:12.300Z,100459.41
2023-03-03T20:47:50.010Z,100451.48
2023-03-03T20:51:33.769Z,100449.55
2023-03-03T20:55:17.309Z,100449.16
2023-03-03T20:59:04.408Z,100437.34
2023-03-03T21:02:40.173Z,100435.73
2023-03-03T21:06:15.838Z,100441.13
2023-03-03T21:09:43.556Z,100430.89
2023-03-03T21:13:37.566Z,100431.80
2023-03-03T21:17:26.481Z,100418.49
2023-03-03T21:20:54.279Z,100413.58
2023-03-03T21:24:23.011Z,100411.89
2023-03-03T21:27:51.604Z,100413.03
2023-03-03T21:31:25.128Z,100411.64
2023-03-03T21:35:11.866Z,100409.89
2023-03-03T21:38:42.869Z,100405.05
2023-03-03T21:42:14.872Z,100400.55
2023-03-03T21:45:46.811Z,100406.02
2023-03-03T21:49:16.049Z,100412.31
2023-03-03T21:52:49.266Z,100415.54
2023-03-03T21:56:18.503Z,100411.05
2023-03-03T21:59:47.311Z,100411.09
2023-03-03T22:03:15.903Z,100412.64
2023-03-03T22:06:45.337Z,100408.17
2023-03-03T22:10:16.466Z,100403.09
2023-03-03T22:13:45.090Z,100400.52
2023-03-03T22:17:15.703Z,100391.11
2023-03-03T22:20:43.797Z,100390.44
2023-03-03T22:24:13.052Z,100387.16
2023-03-03T22:27:41.378Z,100385.75
2023-03-03T22:31:16.571Z,100389.30
2023-03-03T22:34:46.819Z,100386.31
2023-03-03T22:38:15.437Z,100373.72
2023-03-03T22:41:43.645Z,100363.07
2023-03-03T22:45:15.161Z,100372.59
2023-03-03T22:48:46.711Z,100369.98
2023-03-03T22:52:15.236Z,100362.27
2023-03-03T22:55:44.588Z,100345.83
2023-03-03T22:59:14.876Z,100338.98
2023-03-03T23:02:43.685Z,100331.14
2023-03-03T23:06:13.786Z,100321.59
2023-03-03T23:09:47.142Z,100309.98
2023-03-03T23:13:15.411Z,100310.00
2023-03-03T23:16:46.653Z,100299.59
2023-03-03T23:20:26.220Z,100296.65
2023-03-03T23:23:54.947Z,100285.91
2023-03-03T23:27:22.951Z,100280.75
2023-03-03T23:30:52.355Z,100277.33
2023-03-03T23:34:19.480Z,100282.94
2023-03-03T23:37:49.302Z,100276.35
2023-03-03T23:41:16.877Z,100261.19
2023-03-03T23:44:46.151Z,100255.27
2023-03-03T23:48:23.111Z,100256.71
2023-03-03T23:51:55.080Z,100252.60
2023-03-03T23:55:28.004Z,100238.04
2023-03-03T23:59:00.664Z,100229.13
